Time;durP1;ratioP1;P1;durP2;ratioP2;P2;SDS_P1;SDS_P2;PMS_P1;PMS_P2;Temp;Humidity;BMP_temperature;BMP_pressure;BME280_temperature;BME280_humidity;BME280_pressure;Samples;Min_cycle;Max_cycle;Signal;HPM_P1;HPM_P2
2022/12/06 00:01:40;;;;;;;55.63;22.70;;;3.20;99.90;;;;;;5045800;28;20409;-69
2022/12/06 00:04:10;;;;;;;47.00;18.98;;;3.20;99.90;;;;;;5034047;28;20029;-69
2022/12/06 00:06:38;;;;;;;44.53;19.77;;;3.10;99.90;;;;;;5033412;28;20096;-69
2022/12/06 00:09:05;;;;;;;43.90;18.88;;;3.10;99.90;;;;;;5035686;28;20121;-68
2022/12/06 00:11:33;;;;;;;39.83;17.75;;;3.10;99.90;;;;;;5039606;28;20033;-69
2022/12/06 00:14:05;;;;;;;41.80;17.98;;;3.10;99.90;;;;;;5040667;28;20413;-68
2022/12/06 00:16:31;;;;;;;41.08;17.73;;;3.00;99.90;;;;;;5041777;28;20053;-69
2022/12/06 00:18:57;;;;;;;44.58;19.05;;;3.00;99.90;;;;;;5030373;28;20980;-69
2022/12/06 00:21:35;;;;;;;44.30;18.75;;;3.10;99.90;;;;;;5034240;28;20029;-68
2022/12/06 00:24:09;;;;;;;42.40;18.42;;;3.10;99.90;;;;;;5048238;28;20060;-69
2022/12/06 00:26:37;;;;;;;44.17;18.50;;;3.20;99.90;;;;;;5046654;28;20029;-69
2022/12/06 00:29:04;;;;;;;43.30;19.13;;;3.20;99.90;;;;;;5049330;28;20053;-69
2022/12/06 00:31:31;;;;;;;47.80;19.10;;;3.20;99.90;;;;;;5037847;28;20044;-69
2022/12/06 00:33:57;;;;;;;43.45;19.15;;;3.20;99.90;;;;;;5047625;28;20039;-69
2022/12/06 00:36:26;;;;;;;44.63;19.35;;;3.20;99.90;;;;;;5045511;28;20028;-69
2022/12/06 00:38:53;;;;;;;42.17;17.38;;;3.20;99.90;;;;;;5047628;28;20614;-69
2022/12/06 00:41:21;;;;;;;38.28;17.88;;;3.20;99.90;;;;;;5040749;28;20029;-69
2022/12/06 00:43:47;;;;;;;45.22;19.10;;;3.20;99.90;;;;;;5027422;28;20441;-70
2022/12/06 00:46:18;;;;;;;44.67;19.38;;;3.20;99.90;;;;;;5038936;28;20490;-69
2022/12/06 00:48:45;;;;;;;40.88;17.65;;;3.20;99.90;;;;;;5047914;28;20032;-70
2022/12/06 00:51:12;;;;;;;40.92;18.30;;;3.30;99.90;;;;;;5047552;28;20025;-69
2022/12/06 00:53:38;;;;;;;42.85;18.70;;;3.30;99.90;;;;;;5044582;28;20064;-70
2022/12/06 00:56:04;;;;;;;42.78;19.10;;;3.30;99.90;;;;;;5031351;28;20059;-69
2022/12/06 00:58:29;;;;;;;41.83;18.35;;;3.30;99.90;;;;;;5047780;28;20138;-68
2022/12/06 01:00:55;;;;;;;254.95;25.70;;;3.30;99.90;;;;;;5034901;28;20041;-68
2022/12/06 01:03:21;;;;;;;36.92;18.45;;;3.20;99.90;;;;;;5044372;28;20075;-69
2022/12/06 01:05:49;;;;;;;71.60;18.02;;;3.10;99.90;;;;;;5040070;28;20041;-68
2022/12/06 01:08:16;;;;;;;35.47;16.80;;;3.10;99.90;;;;;;5046935;28;20033;-69
2022/12/06 01:10:51;;;;;;;38.75;16.95;;;3.00;99.90;;;;;;5046196;28;20029;-70
2022/12/06 01:13:16;;;;;;;39.30;17.30;;;3.00;99.90;;;;;;5048448;28;20119;-69
2022/12/06 01:15:42;;;;;;;40.13;17.15;;;3.00;99.90;;;;;;5046732;28;20104;-69
2022/12/06 01:18:08;;;;;;;37.08;17.13;;;3.00;99.90;;;;;;5038783;28;20037;-68
2022/12/06 01:20:33;;;;;;;44.50;18.75;;;3.00;99.90;;;;;;5048393;28;20032;-68
2022/12/06 01:22:59;;;;;;;45.05;18.63;;;3.00;99.90;;;;;;5043659;28;20057;-69
2022/12/06 01:25:26;;;;;;;36.85;16.98;;;3.00;99.90;;;;;;5045858;28;20057;-69
2022/12/06 01:27:51;;;;;;;39.95;17.85;;;3.00;99.90;;;;;;5041274;28;20118;-68
2022/12/06 01:30:17;;;;;;;37.30;17.70;;;3.00;99.90;;;;;;5027797;28;20031;-69
2022/12/06 01:32:43;;;;;;;43.88;18.83;;;3.00;99.90;;;;;;5029420;28;20029;-68
2022/12/06 01:35:08;;;;;;;41.65;18.40;;;3.00;99.90;;;;;;5028363;28;20091;-69
2022/12/06 01:37:34;;;;;;;36.28;17.05;;;3.00;99.90;;;;;;5026988;28;20523;-68
2022/12/06 01:39:59;;;;;;;39.55;17.73;;;3.00;99.90;;;;;;5047628;28;20075;-69
2022/12/06 01:42:25;;;;;;;40.88;18.08;;;3.00;99.90;;;;;;5038093;28;20069;-69
2022/12/06 01:44:53;;;;;;;42.78;17.70;;;3.10;99.90;;;;;;5027509;28;20496;-68
2022/12/06 01:47:27;;;;;;;38.05;17.60;;;3.00;99.90;;;;;;5023312;28;20034;-68
2022/12/06 01:49:53;;;;;;;39.25;17.40;;;3.00;99.90;;;;;;5026483;28;20025;-68
2022/12/06 01:52:22;;;;;;;40.20;18.45;;;3.00;99.90;;;;;;5029582;28;20079;-69
2022/12/06 01:54:47;;;;;;;46.22;18.42;;;3.00;99.90;;;;;;5027238;28;20120;-69
2022/12/06 01:57:15;;;;;;;41.05;18.05;;;3.00;99.90;;;;;;5029432;28;20414;-69
2022/12/06 01:59:41;;;;;;;44.88;19.38;;;3.00;99.90;;;;;;5047438;28;20057;-69
2022/12/06 02:02:07;;;;;;;43.40;19.27;;;3.00;99.90;;;;;;5030541;28;20069;-69
2022/12/06 02:04:35;;;;;;;44.60;17.73;;;3.00;99.90;;;;;;5038170;28;20037;-68
2022/12/06 02:07:01;;;;;;;42.55;18.50;;;3.10;99.90;;;;;;5036511;28;20036;-69
2022/12/06 02:09:28;;;;;;;36.90;17.02;;;3.00;99.90;;;;;;5042709;28;20087;-70
2022/12/06 02:11:54;;;;;;;40.38;17.50;;;3.00;99.90;;;;;;5034542;28;20695;-68
2022/12/06 02:14:24;;;;;;;43.03;18.30;;;3.00;99.90;;;;;;5031730;28;20029;-69
2022/12/06 02:17:13;;;;;;;37.35;16.90;;;3.00;99.90;;;;;;5043018;28;20068;-68
2022/12/06 02:19:48;;;;;;;41.00;16.73;;;3.00;99.90;;;;;;5018499;28;20068;-69
2022/12/06 02:22:13;;;;;;;40.70;17.42;;;3.10;99.90;;;;;;5026857;28;20080;-69
2022/12/06 02:24:56;;;;;;;36.92;16.15;;;3.10;99.90;;;;;;5027430;28;20041;-69
2022/12/06 02:27:40;;;;;;;35.30;16.08;;;3.10;99.90;;;;;;5036205;28;20405;-69
2022/12/06 02:30:45;;;;;;;32.22;15.13;;;3.10;99.90;;;;;;5049103;28;20025;-68
2022/12/06 02:33:24;;;;;;;47.03;14.27;;;3.10;99.90;;;;;;5047448;28;20072;-68
2022/12/06 02:36:16;;;;;;;36.90;15.02;;;3.00;99.90;;;;;;5049917;28;20045;-68
2022/12/06 02:39:10;;;;;;;142.45;18.08;;;2.90;99.90;;;;;;5009793;28;20033;-69
2022/12/06 02:41:41;;;;;;;39.80;15.15;;;2.80;99.90;;;;;;5016300;28;20453;-69
2022/12/06 02:44:15;;;;;;;37.80;15.40;;;2.70;99.90;;;;;;5031121;28;20108;-69
2022/12/06 02:46:42;;;;;;;36.92;15.68;;;2.70;99.90;;;;;;5040015;28;20068;-71
2022/12/06 02:49:12;;;;;;;35.17;15.15;;;2.70;99.90;;;;;;5038093;28;20029;-69
2022/12/06 02:51:38;;;;;;;36.77;16.07;;;2.70;99.90;;;;;;5040509;28;20029;-68
2022/12/06 02:54:08;;;;;;;33.28;15.07;;;2.80;99.90;;;;;;5040256;28;20302;-69
2022/12/06 02:56:34;;;;;;;29.98;14.75;;;2.80;99.90;;;;;;5030764;28;20026;-69
2022/12/06 02:59:00;;;;;;;36.50;15.98;;;2.90;99.90;;;;;;5028204;28;20726;-69
2022/12/06 03:01:30;;;;;;;35.33;14.77;;;2.90;99.90;;;;;;5030609;28;20022;-69
2022/12/06 03:04:17;;;;;;;31.08;14.55;;;2.90;99.90;;;;;;5028483;28;20030;-70
2022/12/06 03:06:58;;;;;;;31.83;14.38;;;2.90;99.90;;;;;;5029230;28;20123;-69
2022/12/06 03:09:43;;;;;;;32.08;14.48;;;3.00;99.90;;;;;;5043939;28;20179;-69
2022/12/06 03:12:23;;;;;;;29.23;13.85;;;3.00;99.90;;;;;;5029393;28;20068;-69
2022/12/06 03:14:49;;;;;;;34.67;14.82;;;3.00;99.90;;;;;;5041323;28;20036;-69
2022/12/06 03:17:20;;;;;;;31.02;14.63;;;3.00;99.90;;;;;;5030268;28;20051;-69
2022/12/06 03:19:56;;;;;;;27.90;13.90;;;3.00;99.90;;;;;;5030352;28;20049;-69
2022/12/06 03:22:30;;;;;;;30.63;13.63;;;2.90;99.90;;;;;;5031959;28;20099;-69
2022/12/06 03:24:57;;;;;;;33.55;14.23;;;2.90;99.90;;;;;;5029887;28;20041;-69
2022/12/06 03:27:26;;;;;;;31.33;13.50;;;2.90;99.90;;;;;;5035735;28;20044;-69
2022/12/06 03:29:56;;;;;;;31.42;14.48;;;2.80;99.90;;;;;;5043121;28;20466;-69
2022/12/06 03:32:26;;;;;;;31.05;14.27;;;2.80;99.90;;;;;;5041624;28;20036;-69
2022/12/06 03:34:55;;;;;;;31.20;13.38;;;2.70;99.90;;;;;;5029702;28;20029;-69
2022/12/06 03:37:24;;;;;;;30.35;13.77;;;2.70;99.90;;;;;;5030362;28;20026;-69
2022/12/06 03:40:10;;;;;;;34.08;13.65;;;2.70;99.90;;;;;;5033841;28;20033;-69
2022/12/06 03:42:36;;;;;;;27.25;13.15;;;2.70;99.90;;;;;;5030356;28;20029;-68
2022/12/06 03:45:03;;;;;;;28.67;13.27;;;2.70;99.90;;;;;;5029101;28;20116;-68
2022/12/06 03:47:58;;;;;;;30.10;13.55;;;2.70;99.90;;;;;;5028930;28;20373;-70
2022/12/06 03:50:32;;;;;;;32.03;14.68;;;2.60;99.90;;;;;;5024781;28;20427;-69
2022/12/06 03:53:00;;;;;;;38.40;14.93;;;2.60;99.90;;;;;;5028570;28;20107;-69
2022/12/06 03:55:26;;;;;;;32.45;13.82;;;2.70;99.90;;;;;;5034911;28;20060;-69
2022/12/06 03:57:51;;;;;;;30.52;14.02;;;2.60;99.90;;;;;;5030268;28;20448;-69
2022/12/06 04:00:18;;;;;;;32.58;13.85;;;2.60;99.90;;;;;;5048602;28;20442;-69
2022/12/06 04:02:43;;;;;;;28.13;13.13;;;2.60;99.90;;;;;;5034205;28;20037;-69
2022/12/06 04:05:09;;;;;;;33.13;14.00;;;2.60;99.90;;;;;;5041071;28;20033;-67
2022/12/06 04:07:38;;;;;;;29.75;14.57;;;2.60;99.90;;;;;;5029847;28;20033;-68
2022/12/06 04:10:04;;;;;;;36.58;15.27;;;2.60;99.90;;;;;;5033044;28;20060;-69
2022/12/06 04:15:18;;;;;;;34.50;14.45;;;2.60;99.90;;;;;;5040175;28;20508;-69
2022/12/06 04:23:02;;;;;;;34.05;14.48;;;2.70;99.90;;;;;;5042072;28;20488;-69
2022/12/06 04:23:15;;;;;;;34.65;14.65;;;2.70;99.90;;;;;;5030417;28;20139;-68
2022/12/06 04:25:41;;;;;;;35.53;14.82;;;2.70;99.90;;;;;;5041695;28;20036;-68
2022/12/06 04:39:03;;;;;;;30.25;13.80;;;2.70;99.90;;;;;;5043456;28;20041;-69
2022/12/06 04:44:13;;;;;;;29.80;13.63;;;2.70;99.90;;;;;;5043333;28;20536;-69
2022/12/06 04:46:38;;;;;;;31.42;13.90;;;2.70;99.90;;;;;;5049193;28;20049;-68
2022/12/06 04:49:04;;;;;;;29.52;13.90;;;2.70;99.90;;;;;;5046557;28;20033;-69
2022/12/06 04:51:29;;;;;;;28.75;13.63;;;2.70;99.90;;;;;;5027129;28;20033;-73
2022/12/06 04:53:55;;;;;;;30.92;13.30;;;2.70;99.90;;;;;;5028979;28;20045;-71
2022/12/06 04:56:21;;;;;;;29.10;14.20;;;2.70;99.90;;;;;;5015048;28;20075;-72
2022/12/06 04:58:49;;;;;;;31.25;14.15;;;2.70;99.90;;;;;;5030165;28;20552;-72
2022/12/06 05:01:18;;;;;;;31.80;13.98;;;2.70;99.90;;;;;;5047134;28;20055;-72
2022/12/06 05:03:43;;;;;;;29.27;13.60;;;2.70;99.90;;;;;;5047303;28;20063;-72
2022/12/06 05:06:09;;;;;;;32.55;14.60;;;2.70;99.90;;;;;;5047770;28;20024;-72
2022/12/06 05:08:35;;;;;;;33.15;14.65;;;2.70;99.90;;;;;;5036382;28;20051;-72
2022/12/06 05:11:00;;;;;;;32.50;14.52;;;2.70;99.90;;;;;;5029838;28;20041;-71
2022/12/06 05:13:26;;;;;;;35.17;15.10;;;2.70;99.90;;;;;;5028829;28;20112;-73
2022/12/06 05:15:56;;;;;;;31.63;14.88;;;2.70;99.90;;;;;;5036699;28;20037;-72
2022/12/06 05:18:23;;;;;;;31.77;14.70;;;2.70;99.90;;;;;;5046255;28;20453;-72
2022/12/06 05:20:49;;;;;;;31.48;14.38;;;2.70;99.90;;;;;;5045784;28;20029;-70
2022/12/06 05:23:15;;;;;;;28.88;13.55;;;2.60;99.90;;;;;;5047761;28;20130;-72
2022/12/06 05:25:41;;;;;;;28.50;13.48;;;2.60;99.90;;;;;;5024235;28;20128;-71
2022/12/06 05:28:07;;;;;;;29.52;13.98;;;2.70;99.90;;;;;;5037451;28;20120;-72
2022/12/06 05:30:33;;;;;;;31.38;14.15;;;2.70;99.90;;;;;;5028145;28;20053;-71
2022/12/06 05:32:59;;;;;;;34.95;15.55;;;2.70;99.90;;;;;;5031177;28;20493;-72
2022/12/06 05:35:24;;;;;;;30.67;14.55;;;2.70;99.90;;;;;;5029984;28;20025;-70
2022/12/06 05:37:50;;;;;;;201.00;18.90;;;2.70;99.90;;;;;;5028034;28;20029;-72
2022/12/06 05:40:16;;;;;;;89.47;13.98;;;2.80;99.90;;;;;;5039275;28;20025;-71
2022/12/06 05:42:41;;;;;;;124.72;14.38;;;2.70;99.90;;;;;;5026449;28;20037;-72
2022/12/06 05:45:09;;;;;;;26.35;12.32;;;2.70;99.90;;;;;;5032187;28;20029;-71
2022/12/06 05:47:35;;;;;;;26.80;12.88;;;2.70;99.90;;;;;;5026536;28;20045;-71
2022/12/06 05:50:01;;;;;;;29.00;13.25;;;2.60;99.90;;;;;;5026606;28;20068;-73
2022/12/06 05:52:26;;;;;;;31.42;14.98;;;2.70;99.90;;;;;;5026442;28;20037;-72
2022/12/06 05:54:52;;;;;;;32.28;14.52;;;2.70;99.90;;;;;;5033728;28;20485;-73
2022/12/06 05:57:18;;;;;;;33.97;14.57;;;2.70;99.90;;;;;;5033151;28;20061;-72
2022/12/06 05:59:43;;;;;;;28.33;13.38;;;2.70;99.90;;;;;;5028208;28;20101;-72
2022/12/06 06:02:09;;;;;;;30.92;14.77;;;2.70;99.90;;;;;;5039584;28;20025;-71
2022/12/06 06:04:34;;;;;;;29.58;13.45;;;2.80;99.90;;;;;;5030886;28;20510;-71
2022/12/06 06:07:00;;;;;;;34.38;14.73;;;2.70;99.90;;;;;;5029991;28;20037;-71
2022/12/06 06:09:26;;;;;;;28.95;14.05;;;2.80;99.90;;;;;;5037306;28;20030;-72
2022/12/06 06:11:54;;;;;;;33.67;14.00;;;2.70;99.90;;;;;;5035894;28;20079;-72
2022/12/06 06:14:19;;;;;;;25.30;13.40;;;2.80;99.90;;;;;;5046472;28;20124;-71
2022/12/06 06:16:45;;;;;;;30.70;14.57;;;2.80;99.90;;;;;;5031524;28;20136;-71
2022/12/06 06:19:11;;;;;;;29.27;13.45;;;2.80;99.90;;;;;;5034641;28;20036;-71
2022/12/06 06:21:36;;;;;;;32.15;13.88;;;2.80;99.90;;;;;;5039368;28;20032;-71
2022/12/06 06:24:02;;;;;;;33.03;14.50;;;2.80;99.90;;;;;;5045969;28;20049;-71
2022/12/06 06:26:28;;;;;;;31.85;14.85;;;2.80;99.90;;;;;;5031327;28;20061;-71
2022/12/06 06:28:54;;;;;;;26.85;13.68;;;2.80;99.90;;;;;;5041461;28;20040;-72
2022/12/06 06:31:20;;;;;;;29.63;13.75;;;2.80;99.90;;;;;;5043201;28;20033;-71
2022/12/06 06:33:45;;;;;;;28.08;12.95;;;2.80;99.90;;;;;;5048014;28;20125;-71
2022/12/06 06:36:11;;;;;;;27.75;12.68;;;2.70;99.90;;;;;;5035469;28;20032;-72
2022/12/06 06:38:37;;;;;;;26.13;12.57;;;2.70;99.90;;;;;;5050301;28;20040;-71
2022/12/06 06:41:04;;;;;;;25.40;12.40;;;2.70;99.90;;;;;;5033046;28;20029;-71
2022/12/06 06:43:29;;;;;;;26.70;11.95;;;2.70;99.90;;;;;;5030318;28;20509;-72
2022/12/06 06:46:00;;;;;;;26.23;12.18;;;2.70;99.90;;;;;;5040480;28;20029;-71
2022/12/06 06:48:28;;;;;;;23.98;11.23;;;2.70;99.90;;;;;;5049321;28;20601;-72
2022/12/06 06:50:54;;;;;;;25.45;11.70;;;2.80;99.90;;;;;;5032736;28;20108;-71
2022/12/06 06:53:20;;;;;;;24.83;11.52;;;2.80;99.90;;;;;;5046220;28;20041;-71
2022/12/06 06:55:47;;;;;;;30.58;12.73;;;2.80;99.90;;;;;;5032258;28;20029;-71
2022/12/06 06:58:13;;;;;;;22.55;11.02;;;2.80;99.90;;;;;;5031897;28;20830;-72
2022/12/06 07:00:43;;;;;;;27.48;12.75;;;2.80;99.90;;;;;;5029184;28;20444;-73
2022/12/06 07:03:14;;;;;;;28.20;12.68;;;2.80;99.90;;;;;;5042454;28;20379;-72
2022/12/06 07:05:42;;;;;;;29.75;11.80;;;2.80;99.90;;;;;;5030088;28;20095;-72
2022/12/06 07:08:08;;;;;;;28.73;12.00;;;2.80;99.90;;;;;;5033661;28;20037;-73
2022/12/06 07:10:34;;;;;;;26.45;12.30;;;2.80;99.90;;;;;;5032420;28;20367;-70
2022/12/06 07:12:59;;;;;;;28.95;13.00;;;2.70;99.90;;;;;;5047527;28;20048;-71
2022/12/06 07:15:25;;;;;;;30.02;13.02;;;2.70;99.90;;;;;;5040818;28;20025;-72
2022/12/06 07:17:52;;;;;;;25.42;11.93;;;2.70;99.90;;;;;;5049339;28;20700;-72
2022/12/06 07:20:18;;;;;;;24.42;12.15;;;2.70;99.90;;;;;;5042834;28;20095;-72
2022/12/06 07:22:44;;;;;;;22.23;11.48;;;2.70;99.90;;;;;;5049641;28;20049;-71
2022/12/06 07:25:10;;;;;;;26.33;12.18;;;2.80;99.90;;;;;;5039733;28;20049;-72
2022/12/06 07:27:36;;;;;;;27.02;11.88;;;2.80;99.90;;;;;;5036265;28;20044;-71
2022/12/06 07:30:04;;;;;;;30.50;12.43;;;2.80;99.90;;;;;;5032417;28;20393;-71
2022/12/06 07:32:34;;;;;;;22.83;10.98;;;2.80;99.90;;;;;;5032062;28;20038;-71
2022/12/06 07:35:00;;;;;;;30.65;11.93;;;2.80;99.90;;;;;;5031949;28;20037;-72
2022/12/06 07:37:26;;;;;;;24.05;11.40;;;2.80;99.90;;;;;;5035102;28;20036;-69
2022/12/06 07:39:51;;;;;;;23.98;10.75;;;2.80;99.90;;;;;;5030656;28;20397;-69
2022/12/06 07:45:03;;;;;;;24.35;11.23;;;2.80;99.90;;;;;;5031504;28;20124;-71
2022/12/06 07:47:33;;;;;;;21.17;10.68;;;2.90;99.90;;;;;;5030264;28;20065;-70
2022/12/06 07:49:59;;;;;;;29.23;10.88;;;2.80;99.90;;;;;;5023990;28;21331;-69
2022/12/06 07:52:24;;;;;;;23.25;10.35;;;2.90;99.90;;;;;;5032559;28;20091;-70
2022/12/06 07:54:50;;;;;;;22.15;10.65;;;2.80;99.90;;;;;;5028501;28;20504;-69
2022/12/06 07:57:16;;;;;;;25.60;11.18;;;2.90;99.90;;;;;;5030149;28;20036;-70
2022/12/06 07:59:41;;;;;;;21.27;10.05;;;2.90;99.90;;;;;;5038563;28;20037;-69
2022/12/06 08:02:17;;;;;;;23.42;10.50;;;2.90;99.90;;;;;;5040865;28;20740;-68
2022/12/06 08:04:43;;;;;;;23.52;10.32;;;2.90;99.90;;;;;;5031342;28;20075;-67
2022/12/06 08:07:09;;;;;;;22.73;10.40;;;3.00;99.90;;;;;;5028571;28;20049;-68
2022/12/06 08:09:34;;;;;;;22.02;10.07;;;3.00;99.90;;;;;;5023803;28;20026;-67
2022/12/06 08:12:00;;;;;;;22.25;10.52;;;3.00;99.90;;;;;;5028271;28;20108;-68
2022/12/06 08:14:26;;;;;;;23.08;11.20;;;3.00;99.90;;;;;;5026473;28;20110;-67
2022/12/06 08:16:51;;;;;;;21.88;9.55;;;3.00;99.90;;;;;;5028916;28;20084;-68
2022/12/06 08:19:17;;;;;;;19.75;9.43;;;3.00;99.90;;;;;;5025697;28;20087;-68
2022/12/06 08:21:42;;;;;;;21.83;10.43;;;3.00;99.90;;;;;;5035012;28;20036;-68
2022/12/06 08:24:08;;;;;;;21.67;9.88;;;3.00;99.90;;;;;;5026962;28;20083;-68
2022/12/06 08:26:35;;;;;;;21.98;10.27;;;3.00;99.90;;;;;;5027693;28;20427;-68
2022/12/06 08:29:01;;;;;;;19.13;9.48;;;3.00;99.90;;;;;;5023256;28;20037;-69
2022/12/06 08:31:27;;;;;;;21.92;9.68;;;3.00;99.90;;;;;;5025212;28;20029;-70
2022/12/06 08:33:53;;;;;;;20.27;9.35;;;3.10;99.90;;;;;;5026371;28;20115;-68
2022/12/06 08:36:20;;;;;;;19.70;9.65;;;3.10;99.90;;;;;;5026767;28;20565;-72
2022/12/06 08:38:47;;;;;;;21.10;10.05;;;3.10;99.90;;;;;;5034079;28;20099;-70
2022/12/06 08:43:59;;;;;;;21.17;9.05;;;3.20;99.90;;;;;;5025446;28;20759;-71
2022/12/06 08:46:26;;;;;;;21.92;10.07;;;3.20;99.90;;;;;;5046308;28;20045;-68
2022/12/06 08:48:52;;;;;;;18.73;9.48;;;3.20;99.90;;;;;;5047226;28;20486;-71
2022/12/06 08:51:18;;;;;;;22.35;10.20;;;3.20;99.90;;;;;;5031835;28;20496;-74
2022/12/06 08:53:43;;;;;;;21.55;10.07;;;3.20;99.90;;;;;;5049058;28;20033;-69
2022/12/06 08:56:09;;;;;;;22.60;9.98;;;3.20;99.90;;;;;;5020681;28;20045;-70
2022/12/06 08:58:35;;;;;;;20.25;9.95;;;3.20;99.90;;;;;;5025440;28;20029;-71
2022/12/06 09:01:08;;;;;;;21.92;9.90;;;3.20;99.90;;;;;;5024098;28;20462;-70
2022/12/06 09:03:33;;;;;;;19.35;9.55;;;3.20;99.90;;;;;;5032186;28;20593;-70
2022/12/06 09:06:01;;;;;;;20.77;10.30;;;3.20;99.90;;;;;;5038327;28;20111;-70
2022/12/06 09:08:27;;;;;;;20.85;9.85;;;3.30;99.90;;;;;;5014342;28;20049;-71
2022/12/06 09:10:53;;;;;;;21.27;9.57;;;3.30;99.90;;;;;;5016926;28;20029;-70
2022/12/06 09:13:18;;;;;;;21.40;9.90;;;3.30;99.90;;;;;;5045128;28;20056;-71
2022/12/06 09:15:44;;;;;;;22.38;10.18;;;3.30;99.90;;;;;;5039373;28;20037;-71
2022/12/06 09:18:09;;;;;;;21.25;9.40;;;3.30;99.90;;;;;;5025929;28;20041;-68
2022/12/06 09:20:39;;;;;;;23.27;10.63;;;3.30;99.90;;;;;;5026394;28;20048;-69
2022/12/06 09:23:04;;;;;;;20.55;9.77;;;3.40;99.90;;;;;;5027250;28;20053;-70
2022/12/06 09:25:30;;;;;;;23.88;10.02;;;3.40;99.90;;;;;;5033743;28;20095;-69
2022/12/06 09:27:56;;;;;;;21.92;10.02;;;3.40;99.90;;;;;;5039146;28;20048;-69
2022/12/06 09:30:22;;;;;;;18.10;8.63;;;3.40;99.90;;;;;;5030474;28;20033;-70
2022/12/06 09:32:48;;;;;;;19.15;8.93;;;3.40;99.90;;;;;;5028263;28;20045;-70
2022/12/06 09:35:13;;;;;;;18.65;8.52;;;3.50;99.90;;;;;;5037049;28;20378;-70
2022/12/06 09:37:39;;;;;;;20.60;8.88;;;3.40;99.90;;;;;;5045179;28;20029;-69
2022/12/06 09:40:15;;;;;;;18.23;8.73;;;3.50;99.90;;;;;;5029077;28;20493;-69
2022/12/06 09:42:59;;;;;;;18.10;8.75;;;3.50;99.90;;;;;;5040153;28;20029;-70
2022/12/06 09:45:36;;;;;;;21.10;9.35;;;3.60;99.90;;;;;;5047353;28;20025;-71
2022/12/06 09:48:28;;;;;;;19.02;9.00;;;3.60;99.90;;;;;;5042053;28;20401;-69
2022/12/06 09:51:02;;;;;;;18.05;9.32;;;3.60;99.90;;;;;;5043476;28;20022;-70
2022/12/06 09:53:33;;;;;;;21.67;9.35;;;3.60;99.90;;;;;;5048182;28;20047;-68
2022/12/06 09:56:03;;;;;;;19.00;9.13;;;3.60;99.90;;;;;;5033861;28;20063;-70
2022/12/06 09:58:32;;;;;;;19.02;8.82;;;3.60;99.90;;;;;;5028432;28;20017;-68
2022/12/06 10:01:07;;;;;;;19.60;9.52;;;3.70;99.90;;;;;;5036012;28;20682;-71
2022/12/06 10:04:14;;;;;;;19.38;9.57;;;3.70;99.90;;;;;;5030164;28;20033;-70
2022/12/06 10:07:14;;;;;;;21.38;9.10;;;3.70;99.90;;;;;;5001909;28;20129;-70
2022/12/06 10:10:00;;;;;;;18.42;8.98;;;3.80;99.90;;;;;;5000494;28;20050;-70
2022/12/06 10:12:50;;;;;;;20.65;9.32;;;3.80;99.90;;;;;;5028520;28;20102;-69
2022/12/06 10:15:35;;;;;;;20.83;9.33;;;3.90;99.90;;;;;;5028371;28;20033;-70
2022/12/06 10:18:14;;;;;;;18.85;9.10;;;3.90;99.90;;;;;;5037081;28;20279;-70
2022/12/06 10:20:55;;;;;;;21.80;9.70;;;3.80;99.90;;;;;;5044347;28;20021;-69
2022/12/06 10:23:36;;;;;;;21.33;9.38;;;3.70;99.90;;;;;;5045928;28;20049;-69
2022/12/06 10:26:22;;;;;;;20.52;9.45;;;3.70;99.90;;;;;;5036096;28;20036;-70
2022/12/06 10:29:08;;;;;;;20.13;9.70;;;3.70;99.90;;;;;;5026960;28;20029;-70
2022/12/06 10:31:59;;;;;;;22.50;10.18;;;3.70;99.90;;;;;;5031620;28;20444;-70
2022/12/06 10:34:48;;;;;;;22.05;9.43;;;3.60;99.90;;;;;;5038692;28;20063;-70
2022/12/06 10:37:26;;;;;;;25.10;9.07;;;3.60;99.90;;;;;;5029670;28;20150;-69
2022/12/06 10:40:00;;;;;;;22.98;10.05;;;3.50;99.90;;;;;;5047884;28;20442;-69
2022/12/06 10:42:30;;;;;;;25.27;10.23;;;3.60;99.90;;;;;;5034824;28;20021;-70
2022/12/06 10:48:13;;;;;;;24.85;10.95;;;3.50;99.90;;;;;;5047815;28;20144;-69
2022/12/06 10:50:40;;;;;;;24.30;10.50;;;3.40;99.90;;;;;;5051444;28;20674;-70
2022/12/06 10:53:17;;;;;;;20.85;9.98;;;3.50;99.90;;;;;;5048647;28;20035;-69
2022/12/06 10:56:04;;;;;;;23.13;11.02;;;3.50;99.90;;;;;;5045926;28;20025;-70
2022/12/06 10:59:08;;;;;;;24.90;10.10;;;3.50;99.90;;;;;;5042063;28;20044;-71
2022/12/06 11:01:43;;;;;;;23.33;10.38;;;3.50;99.90;;;;;;5023166;28;20555;-70
2022/12/06 11:04:33;;;;;;;23.58;10.45;;;3.50;99.90;;;;;;5008665;28;20049;-71
2022/12/06 11:07:11;;;;;;;25.45;10.65;;;3.50;99.90;;;;;;5036347;28;20049;-69
2022/12/06 11:09:42;;;;;;;23.45;10.75;;;3.60;99.90;;;;;;5048958;28;20040;-69
2022/12/06 11:12:37;;;;;;;24.63;10.35;;;3.50;99.90;;;;;;5027758;28;20518;-68
2022/12/06 11:15:12;;;;;;;24.58;11.27;;;3.50;99.90;;;;;;5028764;28;20059;-69
2022/12/06 11:17:43;;;;;;;24.17;10.85;;;3.50;99.90;;;;;;5044213;28;20029;-69
2022/12/06 11:20:26;;;;;;;26.70;11.43;;;3.60;99.90;;;;;;5035472;28;20041;-69
2022/12/06 11:23:24;;;;;;;25.10;11.73;;;3.50;99.90;;;;;;5048908;28;20049;-69
2022/12/06 11:26:01;;;;;;;29.83;12.32;;;3.50;99.90;;;;;;5043361;28;20475;-69
2022/12/06 11:28:42;;;;;;;26.65;12.05;;;3.50;99.90;;;;;;5029516;28;20532;-68
2022/12/06 11:31:24;;;;;;;29.23;12.82;;;3.60;99.90;;;;;;5024589;28;20079;-69
2022/12/06 11:33:49;;;;;;;31.90;13.32;;;3.50;99.90;;;;;;5029382;28;20092;-68
2022/12/06 11:36:15;;;;;;;31.70;13.82;;;3.60;99.90;;;;;;5036588;28;20061;-69
2022/12/06 11:38:43;;;;;;;32.00;13.13;;;3.60;99.90;;;;;;5029926;28;20476;-69
2022/12/06 11:41:16;;;;;;;33.67;13.40;;;3.50;99.90;;;;;;5028671;28;20390;-69
2022/12/06 11:43:42;;;;;;;34.85;14.32;;;3.60;99.90;;;;;;5029293;28;20069;-70
2022/12/06 11:46:10;;;;;;;33.35;14.00;;;3.50;99.90;;;;;;5034342;28;20068;-69
2022/12/06 11:48:36;;;;;;;36.42;14.30;;;3.50;99.90;;;;;;5049799;28;20036;-70
2022/12/06 11:51:02;;;;;;;37.08;14.73;;;3.50;99.90;;;;;;5039980;28;20034;-70
2022/12/06 11:53:47;;;;;;;36.95;14.80;;;3.50;99.90;;;;;;5028560;28;20037;-70
2022/12/06 11:56:25;;;;;;;40.03;15.98;;;3.40;99.90;;;;;;5036934;28;20029;-69
2022/12/06 11:59:28;;;;;;;40.17;15.80;;;3.40;99.90;;;;;;5039105;28;20056;-69
2022/12/06 12:01:56;;;;;;;40.13;15.32;;;3.40;99.90;;;;;;5039162;28;20083;-69
2022/12/06 12:04:36;;;;;;;37.03;15.15;;;3.40;99.90;;;;;;5038887;28;20032;-70
2022/12/06 12:07:04;;;;;;;45.08;16.20;;;3.40;99.90;;;;;;5043978;28;20098;-69
2022/12/06 12:09:34;;;;;;;44.35;16.10;;;3.40;99.90;;;;;;5049226;28;20163;-69
2022/12/06 12:12:18;;;;;;;46.08;17.20;;;3.50;99.90;;;;;;5036651;28;20114;-70
2022/12/06 12:14:53;;;;;;;40.80;16.63;;;3.50;99.90;;;;;;5029236;28;20037;-68
2022/12/06 12:17:22;;;;;;;47.70;17.52;;;3.50;99.90;;;;;;5040110;28;20474;-69
2022/12/06 12:20:06;;;;;;;39.95;16.05;;;3.50;99.90;;;;;;5028199;28;20064;-69
2022/12/06 12:22:41;;;;;;;39.05;15.80;;;3.50;99.90;;;;;;5040875;28;20041;-68
2022/12/06 12:25:21;;;;;;;40.38;14.93;;;3.50;99.90;;;;;;5029157;28;20376;-68
2022/12/06 12:27:49;;;;;;;42.60;16.48;;;3.50;99.90;;;;;;5030487;28;20038;-70
2022/12/06 12:30:26;;;;;;;45.55;16.55;;;3.50;99.90;;;;;;5048878;28;20037;-69
2022/12/06 12:33:16;;;;;;;41.90;16.33;;;3.50;99.90;;;;;;5029513;28;20033;-70
2022/12/06 12:35:47;;;;;;;47.38;17.52;;;3.40;99.90;;;;;;5035089;28;20398;-70
2022/12/06 12:38:24;;;;;;;46.05;15.98;;;3.40;99.90;;;;;;5048800;28;20462;-71
2022/12/06 12:40:53;;;;;;;42.83;16.27;;;3.40;99.90;;;;;;5043684;28;20037;-69
2022/12/06 12:43:26;;;;;;;42.75;15.75;;;3.40;99.90;;;;;;5026566;28;20054;-71
2022/12/06 12:46:07;;;;;;;39.17;14.48;;;3.40;99.90;;;;;;5048143;28;20068;-70
2022/12/06 12:48:33;;;;;;;43.08;15.77;;;3.40;99.90;;;;;;5045021;28;20183;-69
2022/12/06 12:51:18;;;;;;;44.55;15.18;;;3.40;99.90;;;;;;5047364;28;20460;-70
2022/12/06 12:53:44;;;;;;;46.25;16.55;;;3.40;99.90;;;;;;5047549;28;20032;-70
2022/12/06 12:56:21;;;;;;;40.30;14.63;;;3.40;99.90;;;;;;5040074;28;20072;-69
2022/12/06 12:58:50;;;;;;;41.70;15.77;;;3.30;99.90;;;;;;5036781;28;20082;-70
2022/12/06 13:01:36;;;;;;;38.33;14.60;;;3.30;99.90;;;;;;5035181;28;20025;-71
2022/12/06 13:04:42;;;;;;;33.30;12.73;;;3.30;99.90;;;;;;5035639;28;20036;-69
2022/12/06 13:07:15;;;;;;;30.48;12.38;;;3.40;99.90;;;;;;5047300;28;20036;-68
2022/12/06 13:09:56;;;;;;;29.23;12.10;;;3.40;99.90;;;;;;5045933;28;20025;-68
2022/12/06 13:12:42;;;;;;;27.80;11.43;;;3.40;99.90;;;;;;5037218;28;20021;-68
2022/12/06 13:15:14;;;;;;;26.15;9.88;;;3.40;99.90;;;;;;5035696;28;20106;-69
2022/12/06 13:17:44;;;;;;;23.27;9.10;;;3.40;99.90;;;;;;5041183;28;20507;-70
2022/12/06 13:20:37;;;;;;;20.42;7.65;;;3.40;99.90;;;;;;5032882;28;20037;-67
2022/12/06 13:23:27;;;;;;;20.17;7.53;;;3.40;99.90;;;;;;5046819;28;20045;-68
2022/12/06 13:26:14;;;;;;;13.10;5.47;;;3.40;99.90;;;;;;5047001;28;20040;-70